New Yoshino — JG5527 — position and weather

sailwx.info

Track history (hours):
 
Tides and Currents Weather Stations Pressure Air Temp Water Temp Dewpoint Dewpoint Depression Visibility Wind Speed Wind Dir Waves Ship Positions

New Yoshino

Last reported at 2017-Jan-22 02:05 UTC. Time now 2017-Jan-22 10:17 UTC.
Position N 35°13' E 139°46'.

Length 102 m; draft 6.7 m.

Type: Tanker. MMSI: 431300724.

Date/timePositionNaut miles runAvg speedWind from/ knotsBaromVisibWave heightAir tempDewpointWater temp
2017-Jan-22 02:05N 35°13' E 139°46'611.9
2017-Jan-22 01:33N 35°19' E 139°43'1111.0
2017-Jan-22 00:33N 35°28' E 139°50'4 3.4
2017-Jan-21 23:27N 35°28' E 139°55'0 0.0
2017-Jan-21 22:33N 35°28' E 139°55'0 0.1
2017-Jan-21 21:30N 35°28' E 139°55'0 0.0
2017-Jan-21 18:33N 35°28' E 139°55'0 0.0
2017-Jan-21 17:33N 35°28' E 139°55'0 0.0
2017-Jan-21 16:33N 35°28' E 139°55'0 0.0
2017-Jan-21 15:33N 35°28' E 139°55'0 0.0
2017-Jan-21 14:33N 35°28' E 139°55'0 0.0
2017-Jan-21 13:33N 35°28' E 139°55'0 0.0
2017-Jan-21 12:33N 35°28' E 139°55'0 0.0
2017-Jan-21 11:33N 35°28' E 139°55'0 0.0
2017-Jan-21 10:33N 35°28' E 139°55'0 0.0
2017-Jan-21 09:33N 35°28' E 139°55'0 0.0
2017-Jan-21 08:30N 35°28' E 139°55'0 0.0
2017-Jan-21 07:33N 35°28' E 139°55'0 0.0
2017-Jan-21 06:33N 35°28' E 139°55'1 1.1
2017-Jan-21 05:33N 35°29' E 139°54'7 6.5
2017-Jan-21 04:32N 35°31' E 139°46'0 0.0
2017-Jan-21 03:32N 35°31' E 139°46'0 0.0
2017-Jan-21 02:32N 35°31' E 139°46'0 0.0
2017-Jan-21 01:32N 35°31' E 139°46'0 0.0
2017-Jan-21 00:32N 35°31' E 139°46'0 0.0
2017-Jan-20 23:32N 35°31' E 139°46'0 0.0
2017-Jan-20 22:32N 35°31' E 139°46'0 0.4
2017-Jan-20 21:34N 35°31' E 139°46'7 6.4
2017-Jan-20 20:31N 35°24' E 139°45'0 0.0
2017-Jan-20 19:31N 35°24' E 139°45'0 0.0
2017-Jan-20 18:31N 35°24' E 139°45'0 0.0
2017-Jan-20 17:31N 35°24' E 139°45'2 2.6
2017-Jan-20 16:34N 35°22' E 139°44'1211.8
2017-Jan-20 15:33N 35°10' E 139°47'  
2017-Jan-18 04:32N 34°07' E 134°59'1412.6
2017-Jan-18 03:26N 34°20' E 134°60'1112.9
2017-Jan-18 02:33N 34°32' E 135°02'7 6.9
2017-Jan-18 01:32N 34°36' E 134°55'3 0.1
2017-Jan-16 07:21N 34°35' E 134°51'910.7
2017-Jan-16 06:30N 34°37' E 135°02'5 5.2
2017-Jan-16 05:28N 34°39' E 135°08'0 0.0
2017-Jan-16 04:28N 34°39' E 135°08'0 0.0
2017-Jan-16 03:22N 34°39' E 135°08'0 0.0
2017-Jan-16 02:10N 34°39' E 135°08'0 0.0
2017-Jan-16 01:28N 34°39' E 135°08'0 0.0
2017-Jan-16 00:22N 34°39' E 135°08'0 0.2
2017-Jan-15 23:33N 34°38' E 135°08'1110.7
2017-Jan-15 22:33N 34°28' E 135°04'1412.9
2017-Jan-15 21:28N 34°15' E 134°59'1112.3
2017-Jan-15 20:33N 34°04' E 134°60'  
2017-Jan-12 14:31N 35°05' E 139°40'1010.6
2017-Jan-12 13:33N 35°14' E 139°46'1111.4
2017-Jan-12 12:33N 35°25' E 139°44'1211.9
2017-Jan-12 11:33N 35°30' E 139°58'1 0.1
2017-Jan-12 03:28N 35°30' E 139°59'0 0.3
2017-Jan-12 02:31N 35°30' E 139°58'  
Track history (hours):
 
Tides and Currents Weather Stations Pressure Air Temp Water Temp Dewpoint Dewpoint Depression Visibility Wind Speed Wind Dir Waves Ship Positions

New Yoshino

Last reported at 2017-Jan-22 02:05 UTC. Time now 2017-Jan-22 10:17 UTC.
Position N 35°13' E 139°46'.

Length 102 m; draft 6.7 m.

Type: Tanker. MMSI: 431300724.

Date/timePositionNaut miles runAvg speedWind from/ knotsBaromVisibWave heightAir tempDewpointWater temp
2017-Jan-22 02:05N 35°13' E 139°46'611.9
2017-Jan-22 01:33N 35°19' E 139°43'1111.0
2017-Jan-22 00:33N 35°28' E 139°50'4 3.4
2017-Jan-21 23:27N 35°28' E 139°55'0 0.0
2017-Jan-21 22:33N 35°28' E 139°55'0 0.1
2017-Jan-21 21:30N 35°28' E 139°55'0 0.0
2017-Jan-21 18:33N 35°28' E 139°55'0 0.0
2017-Jan-21 17:33N 35°28' E 139°55'0 0.0
2017-Jan-21 16:33N 35°28' E 139°55'0 0.0
2017-Jan-21 15:33N 35°28' E 139°55'0 0.0
2017-Jan-21 14:33N 35°28' E 139°55'0 0.0
2017-Jan-21 13:33N 35°28' E 139°55'0 0.0
2017-Jan-21 12:33N 35°28' E 139°55'0 0.0
2017-Jan-21 11:33N 35°28' E 139°55'0 0.0
2017-Jan-21 10:33N 35°28' E 139°55'0 0.0
2017-Jan-21 09:33N 35°28' E 139°55'0 0.0
2017-Jan-21 08:30N 35°28' E 139°55'0 0.0
2017-Jan-21 07:33N 35°28' E 139°55'0 0.0
2017-Jan-21 06:33N 35°28' E 139°55'1 1.1
2017-Jan-21 05:33N 35°29' E 139°54'7 6.5
2017-Jan-21 04:32N 35°31' E 139°46'0 0.0
2017-Jan-21 03:32N 35°31' E 139°46'0 0.0
2017-Jan-21 02:32N 35°31' E 139°46'0 0.0
2017-Jan-21 01:32N 35°31' E 139°46'0 0.0
2017-Jan-21 00:32N 35°31' E 139°46'0 0.0
2017-Jan-20 23:32N 35°31' E 139°46'0 0.0
2017-Jan-20 22:32N 35°31' E 139°46'0 0.4
2017-Jan-20 21:34N 35°31' E 139°46'7 6.4
2017-Jan-20 20:31N 35°24' E 139°45'0 0.0
2017-Jan-20 19:31N 35°24' E 139°45'0 0.0
2017-Jan-20 18:31N 35°24' E 139°45'0 0.0
2017-Jan-20 17:31N 35°24' E 139°45'2 2.6
2017-Jan-20 16:34N 35°22' E 139°44'1211.8
2017-Jan-20 15:33N 35°10' E 139°47'  
2017-Jan-18 04:32N 34°07' E 134°59'1412.6
2017-Jan-18 03:26N 34°20' E 134°60'1112.9
2017-Jan-18 02:33N 34°32' E 135°02'7 6.9
2017-Jan-18 01:32N 34°36' E 134°55'3 0.1
2017-Jan-16 07:21N 34°35' E 134°51'910.7
2017-Jan-16 06:30N 34°37' E 135°02'5 5.2
2017-Jan-16 05:28N 34°39' E 135°08'0 0.0
2017-Jan-16 04:28N 34°39' E 135°08'0 0.0
2017-Jan-16 03:22N 34°39' E 135°08'0 0.0
2017-Jan-16 02:10N 34°39' E 135°08'0 0.0
2017-Jan-16 01:28N 34°39' E 135°08'0 0.0
2017-Jan-16 00:22N 34°39' E 135°08'0 0.2
2017-Jan-15 23:33N 34°38' E 135°08'1110.7
2017-Jan-15 22:33N 34°28' E 135°04'1412.9
2017-Jan-15 21:28N 34°15' E 134°59'1112.3
2017-Jan-15 20:33N 34°04' E 134°60'  
2017-Jan-12 14:31N 35°05' E 139°40'1010.6
2017-Jan-12 13:33N 35°14' E 139°46'1111.4
2017-Jan-12 12:33N 35°25' E 139°44'1211.9
2017-Jan-12 11:33N 35°30' E 139°58'1 0.1
2017-Jan-12 03:28N 35°30' E 139°59'0 0.3
2017-Jan-12 02:31N 35°30' E 139°58'  

Dump ship's entire track history